createdAt,value
2022-12-24T00:00:31.934Z,19.47
2022-12-24T00:03:52.346Z,20.00
2022-12-24T00:06:54.747Z,18.67
2022-12-24T00:09:56.717Z,18.93
2022-12-24T00:12:58.966Z,19.83
2022-12-24T00:16:01.381Z,18.07
2022-12-24T00:19:03.699Z,19.37
2022-12-24T00:22:05.683Z,19.13
2022-12-24T00:25:08.252Z,18.67
2022-12-24T00:28:10.742Z,18.67
2022-12-24T00:31:18.933Z,16.13
2022-12-24T00:34:23.701Z,17.93
2022-12-24T00:37:26.100Z,18.13
2022-12-24T00:40:28.081Z,14.60
2022-12-24T00:43:31.763Z,16.60
2022-12-24T00:46:34.889Z,16.00
2022-12-24T00:49:37.213Z,15.20
2022-12-24T00:52:39.284Z,15.93
2022-12-24T00:55:41.584Z,16.40
2022-12-24T00:58:44.796Z,16.23
2022-12-24T01:01:47.166Z,16.77
2022-12-24T01:05:08.071Z,17.33
2022-12-24T01:08:10.333Z,16.03
2022-12-24T01:11:13.931Z,16.17
2022-12-24T01:14:16.202Z,14.10
2022-12-24T01:17:18.405Z,15.40
2022-12-24T01:20:21.061Z,16.27
2022-12-24T01:23:23.051Z,14.90
2022-12-24T01:26:25.354Z,14.73
2022-12-24T01:29:27.347Z,15.50
2022-12-24T01:32:29.676Z,17.00
2022-12-24T01:35:31.643Z,16.13
2022-12-24T01:38:33.980Z,16.60
2022-12-24T01:41:54.429Z,15.63
2022-12-24T01:44:56.719Z,15.07
2022-12-24T01:47:58.729Z,14.97
2022-12-24T01:51:21.195Z,13.87
2022-12-24T01:54:43.038Z,12.67
2022-12-24T01:57:58.898Z,12.77
2022-12-24T02:01:00.969Z,13.10
2022-12-24T02:04:12.194Z,13.23
2022-12-24T02:07:14.290Z,13.87
2022-12-24T02:10:16.837Z,13.90
2022-12-24T02:13:21.090Z,12.77
2022-12-24T02:16:38.521Z,13.50
2022-12-24T02:20:06.867Z,12.23
2022-12-24T02:23:27.923Z,14.17
2022-12-24T02:26:56.237Z,12.57
2022-12-24T02:30:05.535Z,12.83
2022-12-24T02:33:29.066Z,12.20
2022-12-24T02:36:36.516Z,11.97
2022-12-24T02:39:52.957Z,11.77
2022-12-24T02:43:08.559Z,13.20
2022-12-24T02:46:24.215Z,11.70
2022-12-24T02:49:26.660Z,11.63
2022-12-24T02:52:35.788Z,11.27
2022-12-24T02:55:53.155Z,12.00
2022-12-24T02:59:07.339Z,10.73
2022-12-24T03:02:31.110Z,10.43
2022-12-24T03:05:39.449Z,10.47
2022-12-24T03:08:55.359Z,9.30
2022-12-24T03:12:13.951Z,11.10
2022-12-24T03:15:19.149Z,11.00
2022-12-24T03:18:27.863Z,11.23
2022-12-24T03:21:38.696Z,10.63
2022-12-24T03:24:40.700Z,10.20
2022-12-24T03:27:43.760Z,10.60
2022-12-24T03:30:48.906Z,11.33
2022-12-24T03:33:51.647Z,11.57
2022-12-24T03:36:53.636Z,11.27
2022-12-24T03:39:55.972Z,12.03
2022-12-24T03:42:58.316Z,11.77
2022-12-24T03:46:07.998Z,14.47
2022-12-24T03:49:10.189Z,13.33
2022-12-24T03:52:12.446Z,12.73
2022-12-24T03:55:14.445Z,13.77
2022-12-24T03:58:16.669Z,14.03
2022-12-24T04:01:19.195Z,14.53
2022-12-24T04:04:21.514Z,14.23
2022-12-24T04:07:23.568Z,14.93
2022-12-24T04:10:25.793Z,14.87
2022-12-24T04:13:28.018Z,16.80
2022-12-24T04:16:30.376Z,15.77
2022-12-24T04:19:32.474Z,16.37
2022-12-24T04:22:34.788Z,16.23
2022-12-24T04:25:37.605Z,17.57
2022-12-24T04:28:41.252Z,16.33
2022-12-24T04:31:43.599Z,16.53
2022-12-24T04:34:45.906Z,15.13
2022-12-24T04:37:47.855Z,16.20
2022-12-24T04:41:01.646Z,16.23
2022-12-24T04:44:03.773Z,16.43
2022-12-24T04:47:06.028Z,16.47
2022-12-24T04:50:08.646Z,16.63
2022-12-24T04:53:10.856Z,16.33
2022-12-24T04:56:18.032Z,17.30
2022-12-24T04:59:20.312Z,17.77
2022-12-24T05:02:22.383Z,17.67
2022-12-24T05:05:24.789Z,17.20
2022-12-24T05:08:26.785Z,16.53
2022-12-24T05:11:29.781Z,17.03
2022-12-24T05:14:31.821Z,14.40
2022-12-24T05:17:34.074Z,15.23
2022-12-24T05:20:36.046Z,15.87
2022-12-24T05:23:57.342Z,17.17
2022-12-24T05:26:59.536Z,17.50
2022-12-24T05:30:01.812Z,15.63
2022-12-24T05:33:04.255Z,14.57
2022-12-24T05:36:07.040Z,14.63
2022-12-24T05:39:15.395Z,15.67
2022-12-24T05:42:18.397Z,15.23
2022-12-24T05:45:20.428Z,15.23
2022-12-24T05:48:22.698Z,14.60
2022-12-24T05:51:24.759Z,14.90
2022-12-24T05:54:27.032Z,14.70
2022-12-24T05:57:29.012Z,15.87
2022-12-24T06:00:31.268Z,15.70
2022-12-24T06:03:34.190Z,15.67
2022-12-24T06:06:36.528Z,16.00
2022-12-24T06:09:38.510Z,16.00
2022-12-24T06:12:40.756Z,17.20
2022-12-24T06:15:42.800Z,16.53
2022-12-24T06:18:45.820Z,18.17
2022-12-24T06:21:47.968Z,16.83
2022-12-24T06:24:50.218Z,16.20
2022-12-24T06:27:52.199Z,16.37
2022-12-24T06:31:02.104Z,16.47
2022-12-24T06:34:04.577Z,14.93
2022-12-24T06:37:06.842Z,14.97
2022-12-24T06:40:09.533Z,13.97
2022-12-24T06:43:12.897Z,12.87
2022-12-24T06:46:15.777Z,13.40
2022-12-24T06:49:18.165Z,13.07
2022-12-24T06:52:20.164Z,12.67
2022-12-24T06:55:22.426Z,12.50
2022-12-24T06:58:24.459Z,12.83
2022-12-24T07:01:26.850Z,12.30
2022-12-24T07:04:29.958Z,11.83
2022-12-24T07:07:32.254Z,13.40
2022-12-24T07:10:34.459Z,12.53
2022-12-24T07:13:40.630Z,14.53
2022-12-24T07:16:43.263Z,13.03
2022-12-24T07:19:45.842Z,12.97
2022-12-24T07:22:48.306Z,12.27
2022-12-24T07:25:52.130Z,12.70
2022-12-24T07:28:54.082Z,12.17
2022-12-24T07:31:56.386Z,13.37
2022-12-24T07:34:58.635Z,14.27
2022-12-24T07:38:01.978Z,20.67
2022-12-24T07:41:08.138Z,16.20
2022-12-24T07:44:14.650Z,16.07
2022-12-24T07:47:16.754Z,15.40
2022-12-24T07:50:19.247Z,18.90
2022-12-24T07:53:21.363Z,16.60
2022-12-24T07:56:23.881Z,16.30
2022-12-24T07:59:26.040Z,21.77
2022-12-24T08:02:28.522Z,28.13
2022-12-24T08:05:36.939Z,21.10
2022-12-24T08:08:39.387Z,24.90
2022-12-24T08:11:46.196Z,41.00
2022-12-24T08:14:52.137Z,25.83
2022-12-24T08:17:54.120Z,20.10
2022-12-24T08:20:56.568Z,19.97
2022-12-24T08:23:58.550Z,19.93
2022-12-24T08:27:00.832Z,22.70
2022-12-24T08:30:04.096Z,21.90
2022-12-24T08:33:06.533Z,24.80
2022-12-24T08:36:09.146Z,21.57
2022-12-24T08:39:11.529Z,19.93
2022-12-24T08:42:13.524Z,22.30
2022-12-24T08:45:15.939Z,20.23
2022-12-24T08:48:18.272Z,23.33
2022-12-24T08:51:20.631Z,20.10
2022-12-24T08:54:23.687Z,32.10
2022-12-24T08:57:28.310Z,19.33
2022-12-24T09:00:30.385Z,23.00
2022-12-24T09:03:32.672Z,19.50
2022-12-24T09:06:34.724Z,21.20
2022-12-24T09:09:38.440Z,20.00
2022-12-24T09:12:40.558Z,18.43
2022-12-24T09:15:42.817Z,20.27
2022-12-24T09:18:44.939Z,27.73
2022-12-24T09:21:47.164Z,19.87
2022-12-24T09:24:49.192Z,20.77
2022-12-24T09:27:51.550Z,18.93
2022-12-24T09:31:05.066Z,21.67
2022-12-24T09:34:07.720Z,19.57
2022-12-24T09:37:09.742Z,19.63
2022-12-24T09:40:25.078Z,21.43
2022-12-24T09:43:31.969Z,21.07
2022-12-24T09:46:42.368Z,20.97
2022-12-24T09:49:49.661Z,20.67
2022-12-24T09:52:53.717Z,23.90
2022-12-24T09:56:01.820Z,21.47
2022-12-24T09:59:09.824Z,25.33
2022-12-24T10:02:17.851Z,22.07
2022-12-24T10:05:40.574Z,20.37
2022-12-24T10:08:57.412Z,19.77
2022-12-24T10:12:46.059Z,34.10
2022-12-24T10:16:04.136Z,24.40
2022-12-24T10:19:18.510Z,21.73
2022-12-24T10:22:27.079Z,20.83
2022-12-24T10:25:48.378Z,20.87
2022-12-24T10:29:00.279Z,21.47
2022-12-24T10:32:17.359Z,19.53
2022-12-24T10:35:24.153Z,21.50
2022-12-24T10:38:26.870Z,20.87
2022-12-24T10:41:30.386Z,19.60
2022-12-24T10:44:34.709Z,19.53
2022-12-24T10:47:39.647Z,20.47
2022-12-24T10:50:53.117Z,24.53
2022-12-24T10:53:59.181Z,23.57
2022-12-24T10:57:02.891Z,21.17
2022-12-24T11:00:07.099Z,20.67
2022-12-24T11:03:23.265Z,28.77
2022-12-24T11:06:25.659Z,25.07
2022-12-24T11:09:32.206Z,21.60
2022-12-24T11:12:38.824Z,20.70
2022-12-24T11:15:41.494Z,19.90
2022-12-24T11:18:58.364Z,19.97
2022-12-24T11:22:17.239Z,21.33
2022-12-24T11:25:34.367Z,22.10
2022-12-24T11:28:37.271Z,20.17
2022-12-24T11:31:39.476Z,19.37
2022-12-24T11:34:44.219Z,19.17
2022-12-24T11:37:47.091Z,17.90
2022-12-24T11:41:20.200Z,18.27
2022-12-24T11:44:27.461Z,17.67
2022-12-24T11:47:34.915Z,16.93
2022-12-24T11:50:37.606Z,17.97
2022-12-24T11:53:43.060Z,16.83
2022-12-24T11:56:48.893Z,17.80
2022-12-24T11:59:52.344Z,17.17
2022-12-24T12:02:58.462Z,17.87
2022-12-24T12:06:07.377Z,18.27
2022-12-24T12:09:25.812Z,18.73
2022-12-24T12:12:41.876Z,19.50
2022-12-24T12:16:02.491Z,17.07
2022-12-24T12:19:14.808Z,18.87
2022-12-24T12:22:34.183Z,22.83
2022-12-24T12:25:39.598Z,23.10
2022-12-24T12:29:22.806Z,21.00
2022-12-24T12:32:49.137Z,19.63
2022-12-24T12:35:51.748Z,24.07
2022-12-24T12:38:54.186Z,22.13
2022-12-24T12:42:05.025Z,22.00
2022-12-24T12:45:17.563Z,24.67
2022-12-24T12:48:35.069Z,27.03
2022-12-24T12:52:11.103Z,23.17
2022-12-24T12:55:42.874Z,20.77
2022-12-24T12:59:08.549Z,19.27
2022-12-24T13:02:26.104Z,19.70
2022-12-24T13:05:48.906Z,27.87
2022-12-24T13:08:53.892Z,22.43
2022-12-24T13:12:14.180Z,29.37
2022-12-24T13:15:22.003Z,27.03
2022-12-24T13:18:38.166Z,41.67
2022-12-24T13:21:45.068Z,29.83
2022-12-24T13:24:55.449Z,20.60
2022-12-24T13:27:57.488Z,18.40
2022-12-24T13:31:19.802Z,19.23
2022-12-24T13:34:36.943Z,18.20
2022-12-24T13:37:39.922Z,18.27
2022-12-24T13:40:41.950Z,18.63
2022-12-24T13:44:03.537Z,20.13
2022-12-24T13:47:32.745Z,29.97
2022-12-24T13:50:39.966Z,28.87
2022-12-24T13:53:47.573Z,25.80
2022-12-24T13:56:50.023Z,28.70
2022-12-24T14:00:17.989Z,29.80
2022-12-24T14:03:41.060Z,26.77
2022-12-24T14:06:43.146Z,30.23
2022-12-24T14:09:51.125Z,43.07
2022-12-24T14:12:53.620Z,26.73
2022-12-24T14:15:55.914Z,26.37
2022-12-24T14:19:17.994Z,25.60
2022-12-24T14:22:24.401Z,24.13
2022-12-24T14:25:26.541Z,27.00
2022-12-24T14:28:36.797Z,29.57
2022-12-24T14:31:49.866Z,26.10
2022-12-24T14:35:07.296Z,25.97
2022-12-24T14:38:21.425Z,26.57
2022-12-24T14:41:45.815Z,25.63
2022-12-24T14:44:59.640Z,25.87
2022-12-24T14:48:17.277Z,24.53
2022-12-24T14:51:24.835Z,24.23
2022-12-24T14:54:31.965Z,23.90
2022-12-24T14:57:33.982Z,22.97
2022-12-24T15:00:39.592Z,22.97
2022-12-24T15:03:41.814Z,22.20
2022-12-24T15:06:52.629Z,24.57
2022-12-24T15:09:54.752Z,25.03
2022-12-24T15:13:01.421Z,25.20
2022-12-24T15:16:14.696Z,25.47
2022-12-24T15:19:24.876Z,24.93
2022-12-24T15:22:31.396Z,25.73
2022-12-24T15:25:34.920Z,26.73
2022-12-24T15:28:39.262Z,25.93
2022-12-24T15:31:41.750Z,26.83
2022-12-24T15:34:46.675Z,28.33
2022-12-24T15:37:48.948Z,26.27
2022-12-24T15:40:51.352Z,27.43
2022-12-24T15:43:59.130Z,27.43
2022-12-24T15:47:02.760Z,26.87
2022-12-24T15:50:19.716Z,28.80
2022-12-24T15:53:35.937Z,28.50
2022-12-24T15:56:43.889Z,28.47
2022-12-24T15:59:52.388Z,27.40
2022-12-24T16:02:54.916Z,31.90
2022-12-24T16:06:08.438Z,31.13
2022-12-24T16:09:50.133Z,31.93
2022-12-24T16:12:52.422Z,30.60
2022-12-24T16:16:14.285Z,30.37
2022-12-24T16:19:21.885Z,30.30
2022-12-24T16:22:35.376Z,27.73
2022-12-24T16:25:37.456Z,30.63
2022-12-24T16:28:39.877Z,30.47
2022-12-24T16:31:49.834Z,27.63
2022-12-24T16:34:52.118Z,28.03
2022-12-24T16:37:55.453Z,28.97
2022-12-24T16:40:57.733Z,27.33
2022-12-24T16:43:59.828Z,28.37
2022-12-24T16:47:02.142Z,30.37
2022-12-24T16:50:06.765Z,30.23
2022-12-24T16:53:17.566Z,26.97
2022-12-24T16:56:20.489Z,29.70
2022-12-24T16:59:24.404Z,40.53
2022-12-24T17:02:26.564Z,31.63
2022-12-24T17:05:29.090Z,29.03
2022-12-24T17:08:31.088Z,29.30
2022-12-24T17:11:33.386Z,30.43
2022-12-24T17:14:35.852Z,29.60
2022-12-24T17:17:38.263Z,31.60
2022-12-24T17:20:40.272Z,31.40
2022-12-24T17:23:42.786Z,30.97
2022-12-24T17:26:44.891Z,31.20
2022-12-24T17:29:47.179Z,34.93
2022-12-24T17:32:49.193Z,31.60
2022-12-24T17:35:52.265Z,35.57
2022-12-24T17:38:54.263Z,39.13
2022-12-24T17:41:57.235Z,37.30
2022-12-24T17:44:59.324Z,41.00
2022-12-24T17:48:01.617Z,37.23
2022-12-24T17:51:08.313Z,31.80
2022-12-24T17:54:10.569Z,32.67
2022-12-24T17:57:12.745Z,32.07
2022-12-24T18:00:15.810Z,35.87
2022-12-24T18:03:18.128Z,34.93
2022-12-24T18:06:21.034Z,34.83
2022-12-24T18:09:23.037Z,35.17
2022-12-24T18:12:25.351Z,33.23
2022-12-24T18:15:27.416Z,35.47
2022-12-24T18:18:29.722Z,30.40
2022-12-24T18:21:33.088Z,33.37
2022-12-24T18:24:35.372Z,32.63
2022-12-24T18:27:37.554Z,33.93
2022-12-24T18:30:39.818Z,33.87
2022-12-24T18:33:42.950Z,35.20
2022-12-24T18:36:49.642Z,34.47
2022-12-24T18:39:55.026Z,33.30
2022-12-24T18:42:57.271Z,37.67
2022-12-24T18:45:59.300Z,39.20
2022-12-24T18:49:02.212Z,37.07
2022-12-24T18:52:09.317Z,36.73
2022-12-24T18:55:11.638Z,36.80
2022-12-24T18:58:13.726Z,39.63
2022-12-24T19:01:22.210Z,42.97
2022-12-24T19:04:24.597Z,42.10
2022-12-24T19:07:27.015Z,40.40
2022-12-24T19:10:29.037Z,41.30
2022-12-24T19:13:31.541Z,41.33
2022-12-24T19:16:36.443Z,38.77
2022-12-24T19:19:38.799Z,39.87
2022-12-24T19:22:40.894Z,40.23
2022-12-24T19:25:43.202Z,36.70
2022-12-24T19:28:45.835Z,36.53
2022-12-24T19:31:48.227Z,37.47
2022-12-24T19:34:50.247Z,37.63
2022-12-24T19:37:52.498Z,39.03
2022-12-24T19:40:54.428Z,38.13
2022-12-24T19:43:59.468Z,37.20
2022-12-24T19:47:01.435Z,38.70
2022-12-24T19:50:04.261Z,38.23
2022-12-24T19:53:06.239Z,39.83
2022-12-24T19:56:08.850Z,38.20
2022-12-24T19:59:10.867Z,39.27
2022-12-24T20:02:13.319Z,39.37
2022-12-24T20:05:16.951Z,41.43
2022-12-24T20:08:19.215Z,41.10
2022-12-24T20:11:22.321Z,41.73
2022-12-24T20:14:24.659Z,41.03
2022-12-24T20:17:26.641Z,42.77
2022-12-24T20:20:29.440Z,44.33
2022-12-24T20:23:31.833Z,47.63
2022-12-24T20:26:34.462Z,45.90
2022-12-24T20:29:36.404Z,45.23
2022-12-24T20:32:38.736Z,44.67
2022-12-24T20:35:40.779Z,44.70
2022-12-24T20:38:45.022Z,45.27
2022-12-24T20:41:48.507Z,45.20
2022-12-24T20:44:50.898Z,44.33
2022-12-24T20:47:52.908Z,44.40
2022-12-24T20:50:56.079Z,44.47
2022-12-24T20:54:00.828Z,41.93
2022-12-24T20:57:03.133Z,42.70
2022-12-24T21:00:05.772Z,41.10
2022-12-24T21:03:08.061Z,41.63
2022-12-24T21:06:10.662Z,42.23
2022-12-24T21:09:12.884Z,45.27
2022-12-24T21:12:33.790Z,45.03
2022-12-24T21:15:39.913Z,42.80
2022-12-24T21:18:41.920Z,42.63
2022-12-24T21:21:45.120Z,44.07
2022-12-24T21:24:47.168Z,44.70
2022-12-24T21:27:51.019Z,46.37
2022-12-24T21:30:54.625Z,45.47
2022-12-24T21:34:01.311Z,45.23
2022-12-24T21:37:03.463Z,44.13
2022-12-24T21:40:07.430Z,44.43
2022-12-24T21:43:09.576Z,44.33
2022-12-24T21:46:15.370Z,47.10
2022-12-24T21:49:36.576Z,50.60
2022-12-24T21:52:38.984Z,48.60
2022-12-24T21:55:40.960Z,50.03
2022-12-24T21:58:44.231Z,49.23
2022-12-24T22:01:46.403Z,44.97
2022-12-24T22:04:48.862Z,44.33
2022-12-24T22:08:09.664Z,41.87
2022-12-24T22:11:35.774Z,40.93
2022-12-24T22:14:38.083Z,40.30
2022-12-24T22:17:40.569Z,39.23
2022-12-24T22:20:43.929Z,39.80
2022-12-24T22:23:46.527Z,37.03
2022-12-24T22:26:48.533Z,44.73
2022-12-24T22:29:50.807Z,54.07
2022-12-24T22:32:52.844Z,48.83
2022-12-24T22:35:55.101Z,43.57
2022-12-24T22:38:57.245Z,40.07
2022-12-24T22:42:00.507Z,37.80
2022-12-24T22:45:02.645Z,37.80
2022-12-24T22:48:05.007Z,36.67
2022-12-24T22:51:15.021Z,35.70
2022-12-24T22:54:17.676Z,33.00
2022-12-24T22:57:19.671Z,32.50
2022-12-24T23:00:43.451Z,34.30
2022-12-24T23:03:45.541Z,33.97
2022-12-24T23:06:47.983Z,33.27
2022-12-24T23:09:50.147Z,33.60
2022-12-24T23:13:14.846Z,34.57
2022-12-24T23:16:17.655Z,34.03
2022-12-24T23:19:20.023Z,34.63
2022-12-24T23:22:22.062Z,34.70
2022-12-24T23:25:24.824Z,35.20
2022-12-24T23:28:26.780Z,36.23
2022-12-24T23:31:30.073Z,34.37
2022-12-24T23:34:32.913Z,32.57
2022-12-24T23:37:35.603Z,32.03
2022-12-24T23:40:37.714Z,32.20
2022-12-24T23:43:40.104Z,30.43
2022-12-24T23:46:42.203Z,27.10
2022-12-24T23:49:44.580Z,27.67
2022-12-24T23:52:46.560Z,26.43
2022-12-24T23:55:48.779Z,24.80
2022-12-24T23:58:51.180Z,22.87
